createdAt,value
2023-05-17T00:00:31.897Z,9.1
2023-05-17T00:10:31.877Z,9.09
2023-05-17T00:20:31.893Z,9.05
2023-05-17T00:30:31.877Z,9.01
2023-05-17T00:40:31.881Z,8.96
2023-05-17T00:50:31.884Z,8.92
2023-05-17T01:00:31.888Z,8.91
2023-05-17T01:20:31.916Z,8.83
2023-05-17T01:30:31.867Z,8.81
2023-05-17T01:40:31.859Z,8.76
2023-05-17T01:50:32.066Z,8.73
2023-05-17T02:00:31.855Z,8.76
2023-05-17T02:10:31.909Z,8.74
2023-05-17T02:20:31.842Z,8.7
2023-05-17T02:30:31.814Z,8.68
2023-05-17T02:40:31.863Z,8.67
2023-05-17T02:50:31.854Z,8.63
2023-05-17T03:00:31.806Z,8.61
2023-05-17T03:10:31.836Z,8.61
2023-05-17T03:20:31.872Z,8.61
2023-05-17T03:30:31.853Z,8.65
2023-05-17T03:40:31.838Z,8.69
2023-05-17T03:50:31.823Z,8.65
2023-05-17T04:00:31.815Z,8.64
2023-05-17T04:10:31.815Z,8.68
2023-05-17T04:20:31.786Z,8.8
2023-05-17T04:30:31.846Z,8.75
2023-05-17T04:40:31.819Z,8.89
2023-05-17T04:50:31.810Z,9.03
2023-05-17T05:00:31.837Z,9.06
2023-05-17T05:10:31.798Z,9.17
2023-05-17T05:20:31.776Z,9.28
2023-05-17T05:30:31.775Z,9.54
2023-05-17T05:40:32.035Z,9.71
2023-05-17T05:50:31.825Z,9.9
2023-05-17T06:00:31.844Z,9.98
2023-05-17T06:10:31.889Z,9.97
2023-05-17T06:20:31.955Z,10.08
2023-05-17T06:30:32.063Z,10.32
2023-05-17T06:40:31.732Z,10.54
2023-05-17T06:50:32.047Z,10.63
2023-05-17T07:00:32.075Z,10.65
2023-05-17T07:10:31.717Z,10.98
2023-05-17T07:20:31.732Z,11.1
2023-05-17T07:30:31.752Z,11.39
2023-05-17T07:40:31.768Z,11.43
2023-05-17T07:50:31.712Z,11.41
2023-05-17T08:00:31.707Z,11.39
2023-05-17T08:10:31.722Z,11.63
2023-05-17T08:20:31.690Z,12.02
2023-05-17T08:30:31.659Z,12.2
2023-05-17T08:40:31.797Z,12.38
2023-05-17T08:50:31.790Z,12.78
2023-05-17T09:00:31.623Z,12.73
2023-05-17T09:10:31.868Z,12.87
2023-05-17T09:20:31.653Z,12.9
2023-05-17T09:30:31.938Z,13
2023-05-17T09:40:31.660Z,13.37
2023-05-17T09:50:31.616Z,13.63
2023-05-17T10:00:31.757Z,13.55
2023-05-17T10:10:31.607Z,13.92
2023-05-17T10:20:31.623Z,14.13
2023-05-17T10:30:31.619Z,14.31
2023-05-17T10:40:31.598Z,14.26
2023-05-17T10:50:31.645Z,13.95
2023-05-17T11:00:31.557Z,13.86
2023-05-17T11:10:31.566Z,14.46
2023-05-17T11:20:32.191Z,14.82
2023-05-17T11:30:31.720Z,14.54
2023-05-17T11:40:31.708Z,14.66
2023-05-17T11:50:31.565Z,14.46
2023-05-17T12:00:31.682Z,14.21
2023-05-17T12:10:33.660Z,14.26
2023-05-17T12:20:31.697Z,14.23
2023-05-17T12:30:31.564Z,14.44
2023-05-17T12:40:31.711Z,14.57
2023-05-17T12:50:31.618Z,14.97
2023-05-17T13:10:31.708Z,14.52
2023-05-17T13:20:31.633Z,14.31
2023-05-17T13:30:31.667Z,13.91
2023-05-17T13:40:31.449Z,13.55
2023-05-17T13:50:31.548Z,13.42
2023-05-17T14:00:31.572Z,13.41
2023-05-17T14:10:31.576Z,13.61
2023-05-17T14:20:31.460Z,13.47
2023-05-17T14:30:31.642Z,13.4
2023-05-17T14:40:31.552Z,13.37
2023-05-17T14:50:31.414Z,13.56
2023-05-17T15:00:31.399Z,13.15
2023-05-17T15:10:31.386Z,12.61
2023-05-17T15:20:31.423Z,12.15
2023-05-17T15:40:31.397Z,11.4
2023-05-17T15:50:31.375Z,11.19
2023-05-17T16:00:31.377Z,11.11
2023-05-17T16:10:31.364Z,11.06
2023-05-17T16:20:31.398Z,11.08
2023-05-17T16:30:31.387Z,11.02
2023-05-17T16:40:31.604Z,10.82
2023-05-17T16:50:31.607Z,10.67
2023-05-17T17:00:31.489Z,10.57
2023-05-17T17:10:31.532Z,10.62
2023-05-17T17:20:31.496Z,10.58
2023-05-17T17:30:31.508Z,10.47
2023-05-17T17:40:31.587Z,10.37
2023-05-17T17:50:31.496Z,10.17
2023-05-17T18:00:31.454Z,9.97
2023-05-17T18:10:31.499Z,9.83
2023-05-17T18:20:31.495Z,9.66
2023-05-17T18:30:31.457Z,9.5
2023-05-17T18:40:31.450Z,9.37
2023-05-17T18:50:31.485Z,9.38
2023-05-17T19:00:31.480Z,9.43
2023-05-17T19:10:31.475Z,9.39
2023-05-17T19:20:31.517Z,9.3
2023-05-17T19:30:32.857Z,9.23
2023-05-17T19:40:31.444Z,9.21
2023-05-17T19:50:31.463Z,9.12
2023-05-17T20:00:31.364Z,9.17
2023-05-17T20:10:31.448Z,9.14
2023-05-17T20:20:31.418Z,9.01
2023-05-17T20:30:31.454Z,8.92
2023-05-17T20:40:31.579Z,8.76
2023-05-17T20:50:31.364Z,8.64
2023-05-17T21:00:31.451Z,8.53
2023-05-17T21:10:31.447Z,8.38
2023-05-17T21:20:31.260Z,8.35
2023-05-17T21:30:31.346Z,8.42
2023-05-17T21:40:31.540Z,8.36
2023-05-17T21:50:31.454Z,8.28
2023-05-17T22:00:31.393Z,8.28
2023-05-17T22:10:31.384Z,8.28
2023-05-17T22:20:31.417Z,8.33
2023-05-17T22:30:31.534Z,8.25
2023-05-17T22:40:31.541Z,8.15
2023-05-17T22:50:31.211Z,8.12
2023-05-17T23:00:31.212Z,8.05
2023-05-17T23:10:31.214Z,8.06
2023-05-17T23:20:31.208Z,8.1
2023-05-17T23:30:31.179Z,8.09
2023-05-17T23:40:31.183Z,8.01
2023-05-17T23:50:31.198Z,8.03
